createdAt,value
2017-12-14T00:02:00.397Z,0.70
2017-12-14T00:04:26.271Z,0.70
2017-12-14T00:06:52.121Z,0.50
2017-12-14T00:09:21.046Z,0.80
2017-12-14T00:11:46.943Z,0.60
2017-12-14T00:14:14.411Z,0.60
2017-12-14T00:16:40.292Z,0.60
2017-12-14T00:19:09.702Z,0.60
2017-12-14T00:21:35.636Z,0.50
2017-12-14T00:24:03.427Z,0.50
2017-12-14T00:26:29.275Z,0.50
2017-12-14T00:28:58.763Z,0.50
2017-12-14T00:31:24.627Z,0.60
2017-12-14T00:33:53.606Z,0.50
2017-12-14T00:36:19.507Z,0.50
2017-12-14T00:38:45.357Z,0.50
2017-12-14T00:41:11.236Z,0.50
2017-12-14T00:43:44.246Z,0.50
2017-12-14T00:46:10.121Z,0.50
2017-12-14T00:48:36.013Z,0.53
2017-12-14T00:51:01.886Z,0.50
2017-12-14T00:53:27.732Z,0.50
2017-12-14T00:55:54.468Z,0.50
2017-12-14T00:58:20.326Z,0.50
2017-12-14T01:00:49.827Z,0.40
2017-12-14T01:03:15.687Z,0.40
2017-12-14T01:05:45.251Z,0.60
2017-12-14T01:08:11.135Z,0.40
2017-12-14T01:10:38.533Z,0.50
2017-12-14T01:13:04.424Z,0.50
2017-12-14T01:15:30.261Z,0.40
2017-12-14T01:17:56.159Z,0.50
2017-12-14T01:20:22.011Z,0.50
2017-12-14T01:22:51.591Z,0.50
2017-12-14T01:25:17.444Z,0.47
2017-12-14T01:27:46.326Z,0.40
2017-12-14T01:30:12.178Z,0.40
2017-12-14T01:32:39.591Z,0.40
2017-12-14T01:35:05.438Z,0.50
2017-12-14T01:37:34.647Z,0.40
2017-12-14T01:40:00.476Z,0.50
2017-12-14T01:42:30.293Z,0.50
2017-12-14T01:44:56.153Z,0.50
2017-12-14T01:47:23.601Z,0.50
2017-12-14T01:49:49.441Z,0.50
2017-12-14T01:52:15.280Z,0.50
2017-12-14T01:54:41.182Z,0.53
2017-12-14T01:57:07.071Z,0.50
2017-12-14T01:59:36.134Z,0.50
2017-12-14T02:02:02.008Z,0.60
2017-12-14T02:04:31.220Z,0.70
2017-12-14T02:06:57.127Z,0.50
2017-12-14T02:09:44.813Z,0.67
2017-12-14T02:12:10.717Z,0.65
2017-12-14T02:14:36.654Z,0.60
2017-12-14T02:17:02.491Z,0.50
2017-12-14T02:19:28.431Z,0.63
2017-12-14T02:21:54.270Z,0.63
2017-12-14T02:24:20.112Z,0.60
2017-12-14T02:26:45.998Z,0.70
2017-12-14T02:29:11.846Z,0.70
2017-12-14T02:31:41.004Z,0.90
2017-12-14T02:34:06.849Z,0.80
2017-12-14T02:36:32.704Z,0.60
2017-12-14T02:38:58.579Z,0.63
2017-12-14T02:41:24.468Z,0.83
2017-12-14T02:43:50.370Z,0.87
2017-12-14T02:46:16.240Z,1.07
2017-12-14T02:48:42.081Z,0.60
2017-12-14T02:51:07.957Z,0.60
2017-12-14T02:53:41.094Z,0.80
2017-12-14T02:56:06.974Z,1.05
2017-12-14T02:58:32.772Z,0.60
2017-12-14T03:00:58.749Z,0.70
2017-12-14T03:03:24.606Z,0.50
2017-12-14T03:05:50.558Z,0.70
2017-12-14T03:08:16.435Z,0.80
2017-12-14T03:10:42.334Z,0.70
2017-12-14T03:13:08.197Z,0.70
2017-12-14T03:15:34.559Z,1.30
2017-12-14T03:18:00.428Z,0.52
2017-12-14T03:20:26.304Z,0.50
2017-12-14T03:22:55.550Z,0.63
2017-12-14T03:25:21.424Z,1.02
2017-12-14T03:27:51.166Z,0.63
2017-12-14T03:30:16.999Z,0.75
2017-12-14T03:32:44.711Z,0.77
2017-12-14T03:35:10.535Z,0.70
2017-12-14T03:37:51.949Z,0.70
2017-12-14T03:40:17.791Z,0.90
2017-12-14T03:42:43.662Z,1.07
2017-12-14T03:45:10.320Z,0.60
2017-12-14T03:47:36.222Z,0.63
2017-12-14T03:50:02.088Z,1.17
2017-12-14T03:52:27.939Z,0.80
2017-12-14T03:54:53.768Z,0.67
2017-12-14T03:57:19.615Z,0.50
2017-12-14T03:59:45.511Z,0.50
2017-12-14T04:02:11.397Z,0.40
2017-12-14T04:04:37.270Z,0.60
2017-12-14T04:07:03.148Z,0.60
2017-12-14T04:09:30.396Z,0.50
2017-12-14T04:11:56.281Z,0.47
2017-12-14T04:14:25.162Z,0.60
2017-12-14T04:16:51.028Z,0.60
2017-12-14T04:19:16.922Z,0.50
2017-12-14T04:21:42.775Z,0.60
2017-12-14T04:24:08.654Z,0.73
2017-12-14T04:26:38.240Z,0.60
2017-12-14T04:29:04.115Z,0.77
2017-12-14T04:31:31.127Z,0.90
2017-12-14T04:33:56.995Z,0.80
2017-12-14T04:36:25.533Z,0.70
2017-12-14T04:38:51.417Z,0.60
2017-12-14T04:47:20.789Z,0.70
2017-12-14T04:49:50.465Z,1.33
2017-12-14T04:52:16.367Z,0.70
2017-12-14T04:54:43.474Z,0.57
2017-12-14T04:57:09.442Z,0.70
2017-12-14T04:59:38.135Z,1.10
2017-12-14T05:02:04.011Z,0.60
2017-12-14T05:07:00.769Z,0.60
2017-12-14T05:09:28.026Z,0.70
2017-12-14T05:11:53.927Z,0.80
2017-12-14T05:14:23.361Z,0.60
2017-12-14T05:16:49.222Z,1.00
2017-12-14T05:19:18.263Z,0.73
2017-12-14T05:21:44.154Z,0.70
2017-12-14T05:24:11.669Z,0.63
2017-12-14T05:26:37.561Z,0.70
2017-12-14T05:29:17.342Z,0.60
2017-12-14T05:31:43.238Z,0.70
2017-12-14T05:34:09.071Z,0.80
2017-12-14T05:36:34.977Z,0.80
2017-12-14T05:39:00.799Z,0.67
2017-12-14T05:41:26.670Z,1.20
2017-12-14T05:43:52.495Z,1.00
2017-12-14T05:46:18.431Z,0.70
2017-12-14T05:48:44.290Z,0.90
2017-12-14T05:54:06.417Z,1.10
2017-12-14T05:56:32.400Z,0.90
2017-12-14T05:58:58.287Z,0.88
2017-12-14T06:01:24.150Z,1.00
2017-12-14T06:03:50.072Z,1.43
2017-12-14T06:06:16.011Z,1.30
2017-12-14T06:08:41.895Z,0.90
2017-12-14T06:11:07.811Z,0.70
2017-12-14T06:13:33.680Z,1.40
2017-12-14T06:16:19.611Z,0.97
2017-12-14T06:18:45.506Z,1.00
2017-12-14T06:21:12.074Z,1.20
2017-12-14T06:23:37.960Z,1.17
2017-12-14T06:26:03.854Z,1.30
2017-12-14T06:28:29.797Z,1.33
2017-12-14T06:30:55.689Z,1.00
2017-12-14T06:33:22.197Z,1.10
2017-12-14T06:35:48.048Z,2.65
2017-12-14T06:38:24.283Z,1.00
2017-12-14T06:40:50.162Z,0.88
2017-12-14T06:43:16.042Z,1.30
2017-12-14T06:45:41.991Z,0.90
2017-12-14T06:48:07.864Z,1.10
2017-12-14T06:50:33.766Z,0.97
2017-12-14T06:52:59.649Z,1.40
2017-12-14T06:55:25.523Z,1.20
2017-12-14T06:57:51.403Z,1.10
2017-12-14T07:00:24.473Z,1.90
2017-12-14T07:03:02.676Z,1.10
2017-12-14T07:05:28.583Z,0.80
2017-12-14T07:07:54.457Z,1.60
2017-12-14T07:10:20.370Z,1.20
2017-12-14T07:12:46.243Z,1.37
2017-12-14T07:15:12.154Z,1.10
2017-12-14T07:17:38.011Z,0.80
2017-12-14T07:20:03.887Z,2.37
2017-12-14T07:22:30.787Z,1.90
2017-12-14T07:24:56.682Z,1.33
2017-12-14T07:27:22.559Z,1.03
2017-12-14T07:29:48.360Z,1.40
2017-12-14T07:32:14.266Z,1.50
2017-12-14T07:34:40.131Z,1.50
2017-12-14T07:37:06.067Z,1.57
2017-12-14T07:39:31.982Z,2.10
2017-12-14T07:41:57.875Z,1.27
2017-12-14T07:44:27.652Z,1.53
2017-12-14T07:47:05.697Z,1.92
2017-12-14T07:49:31.587Z,1.52
2017-12-14T07:51:57.582Z,1.57
2017-12-14T07:54:23.502Z,1.10
2017-12-14T07:56:49.415Z,2.00
2017-12-14T07:59:15.304Z,1.10
2017-12-14T08:01:41.210Z,1.03
2017-12-14T08:04:29.189Z,1.70
2017-12-14T08:06:55.102Z,1.35
2017-12-14T08:09:21.108Z,1.13
2017-12-14T08:11:46.935Z,2.30
2017-12-14T08:14:12.864Z,1.27
2017-12-14T08:16:38.733Z,1.30
2017-12-14T08:19:04.591Z,1.50
2017-12-14T08:21:30.456Z,1.07
2017-12-14T08:23:56.397Z,1.80
2017-12-14T08:26:30.610Z,1.07
2017-12-14T08:28:56.485Z,1.40
2017-12-14T08:31:22.406Z,1.20
2017-12-14T08:33:48.278Z,2.27
2017-12-14T08:36:14.176Z,1.00
2017-12-14T08:38:40.087Z,1.10
2017-12-14T08:41:06.065Z,1.40
2017-12-14T08:43:31.936Z,1.50
2017-12-14T08:45:57.801Z,1.30
2017-12-14T08:48:23.755Z,0.97
2017-12-14T08:50:49.590Z,1.17
2017-12-14T08:53:15.486Z,1.70
2017-12-14T08:55:41.339Z,1.53
2017-12-14T08:58:07.225Z,1.70
2017-12-14T09:00:33.112Z,1.47
2017-12-14T09:02:58.991Z,1.23
2017-12-14T09:05:24.908Z,2.17
2017-12-14T09:07:50.774Z,1.13
2017-12-14T09:13:26.615Z,1.85
2017-12-14T09:15:52.469Z,1.33
2017-12-14T09:18:18.359Z,1.33
2017-12-14T09:20:44.211Z,1.23
2017-12-14T09:23:10.126Z,1.40
2017-12-14T09:25:36.047Z,2.37
2017-12-14T09:28:01.914Z,1.30
2017-12-14T09:30:28.477Z,2.03
2017-12-14T09:32:54.312Z,1.55
2017-12-14T09:35:23.792Z,1.00
2017-12-14T09:37:49.659Z,1.35
2017-12-14T09:40:18.878Z,1.30
2017-12-14T09:42:44.735Z,1.90
2017-12-14T09:45:14.229Z,1.80
2017-12-14T09:47:40.148Z,1.20
2017-12-14T09:50:06.037Z,1.77
2017-12-14T09:52:31.942Z,1.30
2017-12-14T09:54:57.863Z,1.57
2017-12-14T09:57:33.794Z,1.90
2017-12-14T09:59:59.685Z,1.95
2017-12-14T10:02:25.531Z,2.70
2017-12-14T10:04:51.344Z,2.03
2017-12-14T10:07:17.230Z,1.67
2017-12-14T10:09:43.081Z,1.43
2017-12-14T10:12:08.989Z,2.03
2017-12-14T10:14:34.877Z,1.90
2017-12-14T10:17:03.955Z,1.80
2017-12-14T10:19:29.849Z,2.15
2017-12-14T10:21:58.871Z,1.40
2017-12-14T10:24:24.761Z,1.70
2017-12-14T10:26:50.621Z,2.00
2017-12-14T10:29:16.485Z,1.27
2017-12-14T10:31:42.400Z,1.40
2017-12-14T10:34:09.693Z,1.80
2017-12-14T10:36:35.579Z,1.75
2017-12-14T10:39:04.894Z,1.60
2017-12-14T10:41:30.795Z,1.62
2017-12-14T10:44:00.413Z,2.23
2017-12-14T10:46:26.264Z,1.30
2017-12-14T10:48:54.044Z,1.90
2017-12-14T10:51:19.898Z,1.20
2017-12-14T10:53:48.779Z,1.60
2017-12-14T10:56:14.680Z,1.40
2017-12-14T10:58:44.405Z,2.13
2017-12-14T11:01:16.302Z,1.23
2017-12-14T11:03:42.153Z,1.40
2017-12-14T11:06:07.967Z,1.57
2017-12-14T11:08:33.790Z,1.40
2017-12-14T11:10:59.641Z,4.00
2017-12-14T11:13:25.530Z,1.47
2017-12-14T11:15:51.384Z,1.63
2017-12-14T11:18:17.260Z,2.90
2017-12-14T11:20:44.016Z,1.30
2017-12-14T11:23:09.902Z,1.50
2017-12-14T11:25:38.516Z,1.10
2017-12-14T11:28:04.355Z,1.10
2017-12-14T11:33:01.176Z,1.70
2017-12-14T11:35:28.302Z,1.37
2017-12-14T11:37:54.218Z,1.90
2017-12-14T11:40:20.048Z,1.00
2017-12-14T11:42:45.887Z,1.80
2017-12-14T11:45:11.746Z,2.13
2017-12-14T11:47:41.183Z,1.77
2017-12-14T11:50:07.059Z,1.37
2017-12-14T11:52:35.934Z,2.30
2017-12-14T11:55:01.781Z,1.62
2017-12-14T11:57:29.676Z,1.77
2017-12-14T11:59:55.544Z,1.92
2017-12-14T12:02:24.436Z,1.30
2017-12-14T12:04:50.284Z,1.50
2017-12-14T12:07:20.196Z,1.63
2017-12-14T12:09:46.055Z,1.90
2017-12-14T12:12:13.801Z,1.20
2017-12-14T12:14:39.650Z,1.67
2017-12-14T12:17:05.495Z,1.53
2017-12-14T12:19:31.378Z,1.73
2017-12-14T12:21:57.241Z,1.97
2017-12-14T12:24:25.567Z,1.70
2017-12-14T12:26:51.416Z,2.10
2017-12-14T12:29:20.608Z,2.03
2017-12-14T12:31:46.529Z,1.40
2017-12-14T12:34:15.377Z,1.57
2017-12-14T12:36:41.185Z,1.35
2017-12-14T12:39:10.078Z,1.63
2017-12-14T12:41:35.922Z,1.27
2017-12-14T12:44:04.821Z,1.77
2017-12-14T12:46:30.648Z,3.40
2017-12-14T12:48:59.620Z,1.67
2017-12-14T12:51:25.473Z,1.50
2017-12-14T12:53:51.296Z,1.20
2017-12-14T12:56:17.194Z,1.67
2017-12-14T12:58:43.022Z,1.93
2017-12-14T13:01:12.214Z,1.10
2017-12-14T13:03:38.135Z,2.15
2017-12-14T13:06:06.958Z,1.33
2017-12-14T13:08:32.781Z,1.42
2017-12-14T13:11:00.105Z,2.23
2017-12-14T13:13:25.944Z,1.42
2017-12-14T13:15:54.884Z,1.63
2017-12-14T13:18:20.735Z,1.75
2017-12-14T13:20:53.378Z,2.00
2017-12-14T13:23:19.242Z,2.28
2017-12-14T13:25:45.091Z,2.00
2017-12-14T13:28:11.022Z,1.53
2017-12-14T13:30:36.867Z,1.77
2017-12-14T13:33:02.701Z,2.27
2017-12-14T13:35:28.549Z,1.70
2017-12-14T13:37:56.433Z,1.50
2017-12-14T13:40:22.297Z,2.47
2017-12-14T13:42:52.134Z,2.93
2017-12-14T13:45:17.990Z,1.48
2017-12-14T13:47:45.789Z,1.47
2017-12-14T13:50:11.634Z,4.10
2017-12-14T13:52:40.771Z,1.93
2017-12-14T13:55:06.716Z,1.95
2017-12-14T13:57:36.221Z,2.30
2017-12-14T14:00:02.107Z,2.00
2017-12-14T14:02:31.098Z,1.60
2017-12-14T14:04:56.958Z,2.83
2017-12-14T14:07:22.807Z,1.70
2017-12-14T14:09:48.656Z,2.20
2017-12-14T14:12:14.482Z,1.20
2017-12-14T14:14:41.641Z,1.73
2017-12-14T14:17:07.509Z,1.48
2017-12-14T14:19:36.454Z,1.60
2017-12-14T14:22:02.301Z,1.30
2017-12-14T14:24:32.103Z,1.67
2017-12-14T14:26:57.945Z,0.90
2017-12-14T14:29:26.949Z,1.73
2017-12-14T14:31:52.832Z,2.10
2017-12-14T14:34:21.768Z,1.40
2017-12-14T14:36:47.634Z,2.10
2017-12-14T14:39:15.518Z,1.53
2017-12-14T14:41:41.387Z,1.15
2017-12-14T14:44:07.211Z,1.00
2017-12-14T14:46:33.051Z,1.50
2017-12-14T14:48:58.902Z,1.40
2017-12-14T14:51:28.322Z,1.60
2017-12-14T14:53:54.195Z,1.95
2017-12-14T14:56:21.100Z,1.40
2017-12-14T14:58:46.926Z,1.40
2017-12-14T15:01:15.543Z,2.50
2017-12-14T15:03:41.376Z,1.92
2017-12-14T15:08:38.045Z,1.17
2017-12-14T15:11:05.451Z,1.67
2017-12-14T15:13:31.267Z,2.30
2017-12-14T15:15:59.878Z,1.23
2017-12-14T15:18:25.738Z,1.73
2017-12-14T15:20:51.533Z,0.90
2017-12-14T15:23:17.365Z,2.73
2017-12-14T15:25:43.210Z,1.07
2017-12-14T15:28:12.182Z,1.97
2017-12-14T15:30:38.010Z,1.73
2017-12-14T15:33:06.926Z,1.43
2017-12-14T15:35:32.762Z,1.90
2017-12-14T15:38:01.935Z,2.70
2017-12-14T15:40:27.754Z,1.25
2017-12-14T15:42:57.637Z,1.80
2017-12-14T15:45:23.453Z,1.83
2017-12-14T15:47:52.360Z,1.70
2017-12-14T15:50:18.236Z,1.87
2017-12-14T15:52:47.184Z,2.53
2017-12-14T15:55:13.041Z,2.30
2017-12-14T15:57:38.868Z,1.87
2017-12-14T16:00:04.736Z,1.80
2017-12-14T16:02:30.588Z,1.63
2017-12-14T16:04:57.317Z,2.40
2017-12-14T16:07:23.185Z,2.20
2017-12-14T16:09:52.073Z,2.00
2017-12-14T16:12:17.898Z,2.00
2017-12-14T16:14:47.530Z,2.43
2017-12-14T16:17:13.378Z,2.50
2017-12-14T16:19:41.438Z,1.80
2017-12-14T16:22:07.310Z,1.87
2017-12-14T16:24:35.965Z,1.67
2017-12-14T16:27:01.849Z,1.60
2017-12-14T16:29:30.684Z,2.30
2017-12-14T16:31:56.532Z,1.90
2017-12-14T16:34:22.370Z,1.33
2017-12-14T16:36:48.230Z,1.90
2017-12-14T16:39:14.057Z,1.20
2017-12-14T16:41:43.717Z,2.13
2017-12-14T16:44:09.539Z,1.67
2017-12-14T16:46:38.420Z,1.77
2017-12-14T16:49:04.269Z,1.98
2017-12-14T16:51:32.146Z,3.60
2017-12-14T16:53:57.996Z,3.92
2017-12-14T16:56:26.954Z,4.33
2017-12-14T16:58:52.793Z,2.58
2017-12-14T17:01:22.625Z,2.27
2017-12-14T17:03:48.539Z,2.10
2017-12-14T17:06:16.406Z,2.60
2017-12-14T17:08:42.191Z,2.55
2017-12-14T17:11:08.010Z,1.80
2017-12-14T17:13:33.826Z,2.13
2017-12-14T17:15:59.660Z,2.67
2017-12-14T17:18:29.520Z,2.00
2017-12-14T17:20:55.381Z,1.42
2017-12-14T17:23:23.271Z,1.80
2017-12-14T17:25:49.144Z,1.90
2017-12-14T17:28:18.998Z,2.20
2017-12-14T17:30:44.841Z,1.75
2017-12-14T17:33:12.480Z,2.43
2017-12-14T17:35:38.324Z,2.70
2017-12-14T17:38:06.817Z,3.23
2017-12-14T17:40:32.648Z,2.15
2017-12-14T17:43:01.716Z,1.90
2017-12-14T17:45:27.556Z,2.72
2017-12-14T17:47:53.433Z,1.87
2017-12-14T17:50:19.266Z,2.20
2017-12-14T17:52:45.068Z,1.10
2017-12-14T17:55:14.499Z,1.73
2017-12-14T17:57:40.325Z,1.30
2017-12-14T18:00:09.372Z,1.83
2017-12-14T18:02:35.205Z,2.20
2017-12-14T18:05:04.166Z,2.47
2017-12-14T18:07:30.047Z,1.52
2017-12-14T18:09:58.977Z,1.80
2017-12-14T18:12:24.863Z,1.95
2017-12-14T18:14:53.754Z,1.80
2017-12-14T18:17:19.595Z,1.58
2017-12-14T18:19:48.554Z,2.70
2017-12-14T18:22:14.388Z,2.00
2017-12-14T18:24:40.258Z,2.33
2017-12-14T18:27:06.102Z,1.87
2017-12-14T18:29:31.956Z,1.60
2017-12-14T18:31:58.540Z,2.27
2017-12-14T18:34:24.381Z,2.30
2017-12-14T18:36:53.317Z,2.20
2017-12-14T18:39:19.189Z,2.28
2017-12-14T18:41:48.994Z,3.20
2017-12-14T18:44:14.873Z,2.12
2017-12-14T18:46:43.966Z,2.50
2017-12-14T18:49:09.828Z,2.70
2017-12-14T18:51:38.862Z,2.33
2017-12-14T18:54:04.708Z,2.28
2017-12-14T18:56:33.712Z,2.80
2017-12-14T18:58:59.579Z,2.20
2017-12-14T19:01:25.434Z,2.20
2017-12-14T19:03:51.314Z,3.90
2017-12-14T19:06:17.154Z,2.33
2017-12-14T19:08:43.673Z,1.83
2017-12-14T19:11:09.534Z,1.90
2017-12-14T19:13:39.381Z,2.27
2017-12-14T19:16:05.342Z,2.10
2017-12-14T19:18:32.884Z,2.20
2017-12-14T19:20:58.772Z,1.60
2017-12-14T19:23:27.640Z,1.73
2017-12-14T19:25:53.525Z,1.83
2017-12-14T19:28:23.850Z,2.60
2017-12-14T19:30:49.655Z,2.40
2017-12-14T19:33:19.316Z,1.60
2017-12-14T19:35:45.221Z,2.40
2017-12-14T19:38:11.102Z,2.00
2017-12-14T19:40:36.959Z,1.90
2017-12-14T19:43:02.808Z,3.50
2017-12-14T19:45:29.488Z,3.37
2017-12-14T19:47:55.315Z,2.95
2017-12-14T19:50:25.116Z,3.63
2017-12-14T19:52:50.950Z,4.47
2017-12-14T19:55:20.081Z,2.10
2017-12-14T19:57:45.949Z,3.08
2017-12-14T20:00:13.772Z,2.87
2017-12-14T20:02:39.609Z,2.37
2017-12-14T20:05:08.758Z,2.40
2017-12-14T20:07:34.594Z,2.25
2017-12-14T20:10:03.751Z,2.23
2017-12-14T20:12:29.599Z,3.20
2017-12-14T20:14:55.438Z,6.23
2017-12-14T20:17:21.311Z,2.80
2017-12-14T20:19:47.177Z,2.90
2017-12-14T20:22:14.847Z,3.13
2017-12-14T20:24:40.774Z,2.62
2017-12-14T20:27:10.622Z,3.20
2017-12-14T20:29:36.499Z,3.70
2017-12-14T20:32:04.216Z,2.43
2017-12-14T20:34:30.102Z,1.50
2017-12-14T20:36:59.724Z,1.30
2017-12-14T20:39:25.578Z,2.97
2017-12-14T20:41:54.616Z,1.33
2017-12-14T20:44:20.440Z,1.23
2017-12-14T20:46:49.424Z,1.20
2017-12-14T20:49:15.243Z,1.40
2017-12-14T20:51:41.102Z,1.90
2017-12-14T20:54:06.990Z,2.37
2017-12-14T20:56:32.851Z,1.30
2017-12-14T20:58:59.646Z,1.57
2017-12-14T21:01:25.515Z,1.50
2017-12-14T21:03:54.176Z,2.30
2017-12-14T21:06:19.996Z,2.40
2017-12-14T21:08:48.690Z,2.03
2017-12-14T21:11:14.491Z,2.22
2017-12-14T21:16:11.347Z,2.80
2017-12-14T21:18:38.926Z,1.80
2017-12-14T21:21:04.814Z,2.03
2017-12-14T21:23:33.795Z,2.33
2017-12-14T21:25:59.683Z,2.35
2017-12-14T21:28:25.551Z,1.53
2017-12-14T21:30:51.417Z,1.67
2017-12-14T21:33:18.833Z,1.37
2017-12-14T21:35:44.720Z,1.60
2017-12-14T21:38:10.549Z,1.70
2017-12-14T21:40:40.425Z,1.50
2017-12-14T21:43:06.252Z,1.58
2017-12-14T21:45:34.046Z,1.27
2017-12-14T21:47:59.896Z,1.23
2017-12-14T21:50:28.503Z,2.17
2017-12-14T21:52:54.413Z,1.17
2017-12-14T21:57:50.990Z,3.75
2017-12-14T22:00:18.758Z,4.50
2017-12-14T22:02:44.670Z,1.80
2017-12-14T22:05:10.499Z,2.57
2017-12-14T22:07:36.344Z,1.90
2017-12-14T22:10:02.237Z,2.23
2017-12-14T22:12:29.832Z,1.87
2017-12-14T22:14:55.645Z,2.47
2017-12-14T22:17:22.238Z,2.50
2017-12-14T22:19:50.264Z,2.72
2017-12-14T22:24:46.944Z,3.53
2017-12-14T22:27:16.111Z,2.80
2017-12-14T22:29:41.954Z,4.00
2017-12-14T22:32:10.924Z,3.23
2017-12-14T22:34:36.777Z,2.85
2017-12-14T22:37:05.644Z,3.17
2017-12-14T22:39:31.522Z,4.10
2017-12-14T22:41:57.348Z,3.90
2017-12-14T22:44:23.226Z,3.17
2017-12-14T22:46:49.098Z,3.57
2017-12-14T22:49:15.832Z,3.97
2017-12-14T22:51:41.693Z,3.70
2017-12-14T22:54:10.551Z,3.53
2017-12-14T22:56:36.354Z,4.25
2017-12-14T22:59:05.254Z,4.00
2017-12-14T23:01:31.131Z,4.15
2017-12-14T23:04:00.906Z,3.27
2017-12-14T23:06:26.822Z,6.65
2017-12-14T23:08:54.600Z,4.40
2017-12-14T23:11:20.461Z,4.30
2017-12-14T23:13:49.751Z,3.20
2017-12-14T23:16:15.713Z,3.47
2017-12-14T23:18:41.565Z,4.00
2017-12-14T23:21:07.414Z,4.03
2017-12-14T23:23:33.259Z,4.10
2017-12-14T23:26:00.769Z,4.47
2017-12-14T23:28:26.572Z,3.42
2017-12-14T23:33:38.880Z,3.83
2017-12-14T23:36:04.765Z,3.33
2017-12-14T23:38:30.677Z,3.10
2017-12-14T23:40:56.565Z,3.23
2017-12-14T23:43:22.462Z,3.30
2017-12-14T23:45:48.349Z,4.07
2017-12-14T23:48:14.270Z,3.10
2017-12-14T23:50:40.158Z,3.50
2017-12-14T23:53:06.024Z,2.83
2017-12-14T23:55:31.880Z,3.50
2017-12-14T23:57:57.765Z,3.80
